Portada
METAR-TAF:

METAR-TAF

Aeropuertos :

Aeropuerto Internacional de Haneda

Tokio-Haneda, Japón

latitud: 35-33N, longitud: 139-47E, altitud: 5 m

Observación

El informe se hizo hace 32 minutos, a las 03:00 UTC
Viento 15 kt del sur
Temperatura 32°C
Humedad 59%
Presión 1002 hPa
Visibilidad 10 km o más
Escasas nubes a una altura de 2000 ft

METAR: RJTT 010300Z 18015KT 9999 FEW020 32/23 Q1002 NOSIG RMK 1CU020 A2960

Hora: 12:32 (03:32 UTC)

Pronóstico

El informe se hizo hace 4 horas y 27 minutos, a las 23:05 UTC
Pronóstico válido del 01 a las 00 UTC al 02 a las 06 UTC
Viento 14 kt del sur
Visibilidad 10 km o más
Escasas nubes a una altura de 3000 ft
Temporalmente
del 01 a las 21 UTC al 02 a las 03 UTC
Visibilidad: 4000 m
chaparrones de lluvia, neblina
Evolucionando progresivamente
del 02 a las 00 UTC al 02 a las 03 UTC
Viento 8 kt del noreste

TAF: RJTT 312305Z 0100/0206 19014KT 9999 FEW030 TEMPO 0121/0203 4000 -SHRA BR BECMG 0200/0203 05008KT

Observaciones y pronósticos meteorológicos de más de 4000 aeropuertos (mensajes METAR y TAF).

Los puntos amarillos y rojos representan las estaciones disponibles.

Ponga el ratón en el punto deseado para ver el nombre de la estación.

Haga clic para ver las observaciones y los pronósticos meteorológicos.

Para cambiar el mapa : haga clic en los botones verdes con una cruz de color negro para hacer un zoom, en el botón verde con un guión para alejar o en las flechas verdes para mapas adyacentes.


METAR-TAF: